createdAt,value
2023-04-08T00:00:47.794Z,13.50
2023-04-08T00:03:14.732Z,13.50
2023-04-08T00:05:41.787Z,13.50
2023-04-08T00:08:08.681Z,13.50
2023-04-08T00:10:35.553Z,13.40
2023-04-08T00:13:02.678Z,13.40
2023-04-08T00:15:29.807Z,13.40
2023-04-08T00:17:56.959Z,13.40
2023-04-08T00:20:24.910Z,13.40
2023-04-08T00:22:51.723Z,13.30
2023-04-08T00:25:18.551Z,13.40
2023-04-08T00:27:45.346Z,13.30
2023-04-08T00:30:12.237Z,13.30
2023-04-08T00:32:39.144Z,13.40
2023-04-08T00:35:06.352Z,13.20
2023-04-08T00:37:34.710Z,13.30
2023-04-08T00:40:01.683Z,13.20
2023-04-08T00:42:30.833Z,13.20
2023-04-08T00:44:58.063Z,13.20
2023-04-08T00:47:26.002Z,13.10
2023-04-08T00:49:53.380Z,13.00
2023-04-08T00:52:20.349Z,13.00
2023-04-08T00:54:47.147Z,13.00
2023-04-08T00:57:14.373Z,13.00
2023-04-08T00:59:42.004Z,12.90
2023-04-08T01:02:23.758Z,12.90
2023-04-08T01:05:03.342Z,12.80
2023-04-08T01:07:46.793Z,12.80
2023-04-08T01:10:28.448Z,12.80
2023-04-08T01:12:57.699Z,12.80
2023-04-08T01:15:27.046Z,12.80
2023-04-08T01:17:56.557Z,12.80
2023-04-08T01:20:28.549Z,12.70
2023-04-08T01:23:00.849Z,12.60
2023-04-08T01:25:33.897Z,12.60
2023-04-08T01:28:04.985Z,12.50
2023-04-08T01:30:33.444Z,12.50
2023-04-08T01:33:02.982Z,12.50
2023-04-08T01:35:31.502Z,12.60
2023-04-08T01:38:01.380Z,12.60
2023-04-08T01:40:28.329Z,12.50
2023-04-08T01:42:57.643Z,12.60
2023-04-08T01:45:25.273Z,12.60
2023-04-08T01:47:53.425Z,12.60
2023-04-08T01:50:22.296Z,12.60
2023-04-08T01:52:53.731Z,12.50
2023-04-08T01:55:21.181Z,12.40
2023-04-08T01:57:53.428Z,12.40
2023-04-08T02:00:26.034Z,12.40
2023-04-08T02:02:54.390Z,12.40
2023-04-08T02:05:21.830Z,12.30
2023-04-08T02:07:49.246Z,12.30
2023-04-08T02:10:16.290Z,12.30
2023-04-08T02:12:44.328Z,12.30
2023-04-08T02:15:12.923Z,12.30
2023-04-08T02:18:08.017Z,12.30
2023-04-08T02:20:43.279Z,12.30
2023-04-08T02:23:24.398Z,12.30
2023-04-08T02:25:55.444Z,12.20
2023-04-08T02:28:27.086Z,12.30
2023-04-08T02:30:55.642Z,12.30
2023-04-08T02:33:23.852Z,12.20
2023-04-08T02:35:54.834Z,12.30
2023-04-08T02:38:24.107Z,12.30
2023-04-08T02:40:51.454Z,12.20
2023-04-08T02:43:18.352Z,12.20
2023-04-08T02:45:46.428Z,12.10
2023-04-08T02:48:13.289Z,12.10
2023-04-08T02:50:41.144Z,12.00
2023-04-08T02:53:08.929Z,11.90
2023-04-08T02:55:38.037Z,11.90
2023-04-08T02:58:04.965Z,11.90
2023-04-08T03:00:31.923Z,11.90
2023-04-08T03:02:58.939Z,11.90
2023-04-08T03:05:26.822Z,11.90
2023-04-08T03:07:53.607Z,11.80
2023-04-08T03:10:20.504Z,11.90
2023-04-08T03:12:47.410Z,11.80
2023-04-08T03:15:14.235Z,11.80
2023-04-08T03:17:41.362Z,11.90
2023-04-08T03:20:09.281Z,11.80
2023-04-08T03:22:36.759Z,11.80
2023-04-08T03:25:04.450Z,11.80
2023-04-08T03:27:31.788Z,11.70
2023-04-08T03:29:58.836Z,11.80
2023-04-08T03:32:26.048Z,11.80
2023-04-08T03:34:53.492Z,11.70
2023-04-08T03:37:20.402Z,11.70
2023-04-08T03:39:47.264Z,11.70
2023-04-08T03:42:14.255Z,11.60
2023-04-08T03:44:41.160Z,11.60
2023-04-08T03:47:07.976Z,11.60
2023-04-08T03:49:34.783Z,11.60
2023-04-08T03:52:01.980Z,11.60
2023-04-08T03:54:28.731Z,11.60
2023-04-08T03:56:55.807Z,11.60
2023-04-08T03:59:23.163Z,11.50
2023-04-08T04:01:51.324Z,11.50
2023-04-08T04:04:18.454Z,11.60
2023-04-08T04:06:45.747Z,11.50
2023-04-08T04:09:12.766Z,11.50
2023-04-08T04:11:39.617Z,11.50
2023-04-08T04:14:06.633Z,11.50
2023-04-08T04:16:33.465Z,11.50
2023-04-08T04:19:00.444Z,11.40
2023-04-08T04:21:27.557Z,11.30
2023-04-08T04:23:54.700Z,11.30
2023-04-08T04:26:21.767Z,11.30
2023-04-08T04:28:48.984Z,11.20
2023-04-08T04:31:26.214Z,11.30
2023-04-08T04:33:53.824Z,11.30
2023-04-08T04:36:21.350Z,11.30
2023-04-08T04:38:50.310Z,11.30
2023-04-08T04:41:18.124Z,11.30
2023-04-08T04:43:45.212Z,11.30
2023-04-08T04:46:12.087Z,11.30
2023-04-08T04:48:38.988Z,11.20
2023-04-08T04:51:07.436Z,11.20
2023-04-08T04:53:34.585Z,11.20
2023-04-08T04:56:01.980Z,11.20
2023-04-08T04:58:29.645Z,11.20
2023-04-08T05:00:56.940Z,11.20
2023-04-08T05:03:23.957Z,11.20
2023-04-08T05:05:54.626Z,11.20
2023-04-08T05:08:21.937Z,11.20
2023-04-08T05:10:51.135Z,11.20
2023-04-08T05:13:18.665Z,11.30
2023-04-08T05:15:46.202Z,11.20
2023-04-08T05:18:13.702Z,11.20
2023-04-08T05:20:40.546Z,11.10
2023-04-08T05:23:07.896Z,11.10
2023-04-08T05:25:34.840Z,11.00
2023-04-08T05:28:01.691Z,11.10
2023-04-08T05:30:28.647Z,11.10
2023-04-08T05:32:57.056Z,11.00
2023-04-08T05:35:25.402Z,11.00
2023-04-08T05:37:52.230Z,10.90
2023-04-08T05:40:19.126Z,10.90
2023-04-08T05:42:46.372Z,10.80
2023-04-08T05:45:13.302Z,10.80
2023-04-08T05:47:40.147Z,10.80
2023-04-08T05:50:07.739Z,10.70
2023-04-08T05:52:34.583Z,10.70
2023-04-08T05:55:01.530Z,10.70
2023-04-08T05:57:28.460Z,10.70
2023-04-08T05:59:55.188Z,10.70
2023-04-08T06:02:22.164Z,10.70
2023-04-08T06:04:49.145Z,10.80
2023-04-08T06:07:16.218Z,10.80
2023-04-08T06:09:45.230Z,10.70
2023-04-08T06:12:12.261Z,10.70
2023-04-08T06:14:39.516Z,10.70
2023-04-08T06:17:06.471Z,10.70
2023-04-08T06:19:33.492Z,10.70
2023-04-08T06:22:00.600Z,10.70
2023-04-08T06:24:29.240Z,10.70
2023-04-08T06:26:56.727Z,10.80
2023-04-08T06:29:24.048Z,10.80
2023-04-08T06:31:51.245Z,10.90
2023-04-08T06:34:18.187Z,10.90
2023-04-08T06:36:44.973Z,11.00
2023-04-08T06:39:11.900Z,11.10
2023-04-08T06:41:38.777Z,11.10
2023-04-08T06:44:19.543Z,11.20
2023-04-08T06:46:46.813Z,11.30
2023-04-08T06:49:13.636Z,11.40
2023-04-08T06:51:40.532Z,11.50
2023-04-08T06:54:07.518Z,11.60
2023-04-08T06:56:34.260Z,11.70
2023-04-08T06:59:01.305Z,11.70
2023-04-08T07:01:28.128Z,11.80
2023-04-08T07:03:55.109Z,11.90
2023-04-08T07:06:22.124Z,12.10
2023-04-08T07:08:49.084Z,12.30
2023-04-08T07:11:16.282Z,12.50
2023-04-08T07:13:43.642Z,12.70
2023-04-08T07:16:10.823Z,12.80
2023-04-08T07:18:37.951Z,12.90
2023-04-08T07:21:05.116Z,13.10
2023-04-08T07:23:32.024Z,13.20
2023-04-08T07:26:07.944Z,13.40
2023-04-08T07:28:34.749Z,13.50
2023-04-08T07:31:16.428Z,13.60
2023-04-08T07:33:44.142Z,13.70
2023-04-08T07:36:12.668Z,13.80
2023-04-08T07:38:40.102Z,13.90
2023-04-08T07:41:07.091Z,14.00
2023-04-08T07:43:34.623Z,14.00
2023-04-08T07:46:04.945Z,14.10
2023-04-08T07:48:32.642Z,14.30
2023-04-08T07:51:08.816Z,14.40
2023-04-08T07:53:37.948Z,14.60
2023-04-08T07:56:15.136Z,14.90
2023-04-08T07:58:42.646Z,15.00
2023-04-08T08:01:21.861Z,15.20
2023-04-08T08:03:49.878Z,15.50
2023-04-08T08:06:17.151Z,15.60
2023-04-08T08:08:44.356Z,15.70
2023-04-08T08:11:11.331Z,15.80
2023-04-08T08:13:38.154Z,15.90
2023-04-08T08:16:09.140Z,16.10
2023-04-08T08:18:36.908Z,16.30
2023-04-08T08:21:03.940Z,16.40
2023-04-08T08:23:30.992Z,16.60
2023-04-08T08:26:06.956Z,16.70
2023-04-08T08:28:34.058Z,16.90
2023-04-08T08:31:01.032Z,17.10
2023-04-08T08:33:28.101Z,17.20
2023-04-08T08:35:56.084Z,17.40
2023-04-08T08:38:23.013Z,17.50
2023-04-08T08:40:56.314Z,17.50
2023-04-08T08:43:24.829Z,17.50
2023-04-08T08:45:51.734Z,17.50
2023-04-08T08:48:18.587Z,17.70
2023-04-08T08:50:45.658Z,18.00
2023-04-08T08:53:12.967Z,18.50
2023-04-08T08:56:09.341Z,19.10
2023-04-08T08:58:28.460Z,19.70
2023-04-08T09:00:55.981Z,20.20
2023-04-08T09:03:24.666Z,20.60
2023-04-08T09:05:53.293Z,21.10
2023-04-08T09:08:35.904Z,21.20
2023-04-08T09:11:21.648Z,21.20
2023-04-08T09:13:48.718Z,21.50
2023-04-08T09:16:20.621Z,22.20
2023-04-08T09:18:49.430Z,22.80
2023-04-08T09:21:17.848Z,23.40
2023-04-08T09:23:46.946Z,24.00
2023-04-08T09:26:16.372Z,24.60
2023-04-08T09:28:44.453Z,25.00
2023-04-08T09:31:29.724Z,25.30
2023-04-08T09:34:02.530Z,25.70
2023-04-08T09:36:29.698Z,26.10
2023-04-08T09:38:56.819Z,26.70
2023-04-08T09:41:25.056Z,27.20
2023-04-08T09:43:54.812Z,27.60
2023-04-08T09:46:44.648Z,28.10
2023-04-08T09:49:29.433Z,28.50
2023-04-08T09:52:03.774Z,28.70
2023-04-08T09:55:01.709Z,28.80
2023-04-08T09:57:36.605Z,29.00
2023-04-08T10:00:14.229Z,29.30
2023-04-08T10:03:03.233Z,29.90
2023-04-08T10:05:31.172Z,30.60
2023-04-08T10:07:58.092Z,31.00
2023-04-08T10:10:26.187Z,31.60
2023-04-08T10:12:53.449Z,32.30
2023-04-08T10:15:28.393Z,32.90
2023-04-08T10:18:08.224Z,33.50
2023-04-08T10:20:35.837Z,34.30
2023-04-08T10:23:07.696Z,35.00
2023-04-08T10:25:36.012Z,35.40
2023-04-08T10:28:23.518Z,36.20
2023-04-08T10:30:52.094Z,36.60
2023-04-08T10:33:31.303Z,37.20
2023-04-08T10:36:10.405Z,37.50
2023-04-08T10:38:42.559Z,38.00
2023-04-08T10:41:21.461Z,38.40
2023-04-08T10:43:48.570Z,39.00
2023-04-08T10:46:17.183Z,39.80
2023-04-08T10:48:44.275Z,40.20
2023-04-08T10:51:12.161Z,40.60
2023-04-08T10:53:39.837Z,41.20
2023-04-08T10:56:13.700Z,41.70
2023-04-08T10:58:59.260Z,42.10
2023-04-08T11:01:27.148Z,42.00
2023-04-08T11:03:54.327Z,42.10
2023-04-08T11:06:21.379Z,42.00
2023-04-08T11:08:48.368Z,42.60
2023-04-08T11:11:15.505Z,43.20
2023-04-08T11:13:52.016Z,43.50
2023-04-08T11:16:21.585Z,43.80
2023-04-08T11:18:49.562Z,44.30
2023-04-08T11:21:17.343Z,44.60
2023-04-08T11:23:44.185Z,45.20
2023-04-08T11:26:11.683Z,45.80
2023-04-08T11:28:39.125Z,46.00
2023-04-08T11:31:06.333Z,46.20
2023-04-08T11:33:35.059Z,46.40
2023-04-08T11:36:05.897Z,46.50
2023-04-08T11:38:32.797Z,46.80
2023-04-08T11:41:00.583Z,44.40
2023-04-08T11:43:28.656Z,40.40
2023-04-08T11:45:55.722Z,37.40
2023-04-08T11:48:23.721Z,35.40
2023-04-08T11:51:08.878Z,34.30
2023-04-08T11:53:39.152Z,33.80
2023-04-08T11:56:22.442Z,35.50
2023-04-08T11:58:49.859Z,38.80
2023-04-08T12:01:16.762Z,41.10
2023-04-08T12:04:01.080Z,42.60
2023-04-08T12:06:29.220Z,43.10
2023-04-08T12:08:56.763Z,44.00
2023-04-08T12:11:24.258Z,43.50
2023-04-08T12:13:51.457Z,43.00
2023-04-08T12:16:19.647Z,43.70
2023-04-08T12:18:46.888Z,45.20
2023-04-08T12:21:13.912Z,45.70
2023-04-08T12:23:40.908Z,44.10
2023-04-08T12:26:07.985Z,43.20
2023-04-08T12:28:35.644Z,43.30
2023-04-08T12:31:03.064Z,42.80
2023-04-08T12:33:30.673Z,41.50
2023-04-08T12:36:00.955Z,39.60
2023-04-08T12:38:27.884Z,39.20
2023-04-08T12:40:55.341Z,39.30
2023-04-08T12:43:23.692Z,38.50
2023-04-08T12:45:51.331Z,37.10
2023-04-08T12:48:18.297Z,35.40
2023-04-08T12:50:45.455Z,33.50
2023-04-08T12:53:12.342Z,31.80
2023-04-08T12:55:39.328Z,30.10
2023-04-08T12:58:06.594Z,28.90
2023-04-08T13:00:33.619Z,28.70
2023-04-08T13:03:00.850Z,28.20
2023-04-08T13:05:42.208Z,27.90
2023-04-08T13:08:12.417Z,27.70
2023-04-08T13:10:39.626Z,28.00
2023-04-08T13:13:06.684Z,28.90
2023-04-08T13:15:33.538Z,31.20
2023-04-08T13:18:00.793Z,34.20
2023-04-08T13:20:28.213Z,37.10
2023-04-08T13:22:55.218Z,38.30
2023-04-08T13:25:22.221Z,37.90
2023-04-08T13:27:49.076Z,35.70
2023-04-08T13:30:16.525Z,33.80
2023-04-08T13:32:43.409Z,33.80
2023-04-08T13:35:11.047Z,35.50
2023-04-08T13:37:38.291Z,37.30
2023-04-08T13:40:06.254Z,38.50
2023-04-08T13:42:33.256Z,39.00
2023-04-08T13:45:00.441Z,39.20
2023-04-08T13:47:28.082Z,38.80
2023-04-08T13:49:55.038Z,38.10
2023-04-08T13:52:21.882Z,36.30
2023-04-08T13:54:48.758Z,34.40
2023-04-08T13:57:15.710Z,33.60
2023-04-08T13:59:44.446Z,33.50
2023-04-08T14:02:11.674Z,33.70
2023-04-08T14:04:39.972Z,33.20
2023-04-08T14:07:07.057Z,32.00
2023-04-08T14:09:34.175Z,30.70
2023-04-08T14:12:01.137Z,29.70
2023-04-08T14:14:28.039Z,30.20
2023-04-08T14:16:55.070Z,31.90
2023-04-08T14:19:21.908Z,33.50
2023-04-08T14:21:48.963Z,33.50
2023-04-08T14:24:16.365Z,31.80
2023-04-08T14:26:43.424Z,30.10
2023-04-08T14:29:10.460Z,29.30
2023-04-08T14:31:37.569Z,29.40
2023-04-08T14:34:04.885Z,29.60
2023-04-08T14:36:32.942Z,30.10
2023-04-08T14:39:00.249Z,29.70
2023-04-08T14:41:27.152Z,28.40
2023-04-08T14:43:54.428Z,27.30
2023-04-08T14:46:21.709Z,26.60
2023-04-08T14:48:48.898Z,26.70
2023-04-08T14:51:15.949Z,26.80
2023-04-08T14:53:42.807Z,26.60
2023-04-08T14:56:10.157Z,26.00
2023-04-08T14:58:37.074Z,25.00
2023-04-08T15:01:04.244Z,24.20
2023-04-08T15:03:31.220Z,23.80
2023-04-08T15:05:58.872Z,23.60
2023-04-08T15:08:25.996Z,23.40
2023-04-08T15:10:52.784Z,23.00
2023-04-08T15:13:19.656Z,22.60
2023-04-08T15:15:46.531Z,22.20
2023-04-08T15:18:13.420Z,22.00
2023-04-08T15:20:40.342Z,21.70
2023-04-08T15:23:07.894Z,21.50
2023-04-08T15:25:34.798Z,21.40
2023-04-08T15:28:02.736Z,21.30
2023-04-08T15:30:35.157Z,21.20
2023-04-08T15:33:05.654Z,21.10
2023-04-08T15:35:32.982Z,20.80
2023-04-08T15:38:00.760Z,20.50
2023-04-08T15:40:28.098Z,20.30
2023-04-08T15:42:55.012Z,20.00
2023-04-08T15:45:22.272Z,19.80
2023-04-08T15:47:49.193Z,19.70
2023-04-08T15:50:17.235Z,19.50
2023-04-08T15:52:44.549Z,19.30
2023-04-08T15:55:11.834Z,19.20
2023-04-08T15:57:38.815Z,19.10
2023-04-08T16:00:10.411Z,19.10
2023-04-08T16:02:40.434Z,19.10
2023-04-08T16:05:07.882Z,19.10
2023-04-08T16:07:34.748Z,19.20
2023-04-08T16:10:01.666Z,19.10
2023-04-08T16:12:28.877Z,19.10
2023-04-08T16:14:55.789Z,19.10
2023-04-08T16:17:23.104Z,19.10
2023-04-08T16:19:51.786Z,19.10
2023-04-08T16:22:19.323Z,19.00
2023-04-08T16:24:46.362Z,19.00
2023-04-08T16:27:13.205Z,19.00
2023-04-08T16:29:40.561Z,19.00
2023-04-08T16:32:08.821Z,18.90
2023-04-08T16:34:36.126Z,18.80
2023-04-08T16:37:03.124Z,18.60
2023-04-08T16:39:29.981Z,18.50
2023-04-08T16:41:56.797Z,18.40
2023-04-08T16:44:23.888Z,18.30
2023-04-08T16:46:50.706Z,18.20
2023-04-08T16:49:18.350Z,18.20
2023-04-08T16:51:45.427Z,18.10
2023-04-08T16:54:12.267Z,18.10
2023-04-08T16:56:44.232Z,18.10
2023-04-08T16:59:12.366Z,18.10
2023-04-08T17:01:39.527Z,18.10
2023-04-08T17:04:06.594Z,18.10
2023-04-08T17:06:35.784Z,18.10
2023-04-08T17:09:03.884Z,18.00
2023-04-08T17:11:31.176Z,18.00
2023-04-08T17:13:58.639Z,18.00
2023-04-08T17:16:25.811Z,18.10
2023-04-08T17:18:52.713Z,18.20
2023-04-08T17:21:20.186Z,18.20
2023-04-08T17:23:47.259Z,18.30
2023-04-08T17:26:14.293Z,18.30
2023-04-08T17:28:41.079Z,18.30
2023-04-08T17:31:07.982Z,18.20
2023-04-08T17:33:34.772Z,18.20
2023-04-08T17:36:01.830Z,18.10
2023-04-08T17:38:28.811Z,18.00
2023-04-08T17:40:55.715Z,18.00
2023-04-08T17:43:22.651Z,18.00
2023-04-08T17:45:50.503Z,17.90
2023-04-08T17:48:18.674Z,17.90
2023-04-08T17:50:45.565Z,17.80
2023-04-08T17:53:12.344Z,17.80
2023-04-08T17:55:39.176Z,17.80
2023-04-08T17:58:06.304Z,17.80
2023-04-08T18:00:33.134Z,17.70
2023-04-08T18:03:00.089Z,17.60
2023-04-08T18:05:27.344Z,17.50
2023-04-08T18:07:54.153Z,17.40
2023-04-08T18:10:23.081Z,17.30
2023-04-08T18:12:50.816Z,17.30
2023-04-08T18:15:21.852Z,17.20
2023-04-08T18:17:48.697Z,17.10
2023-04-08T18:20:15.819Z,17.10
2023-04-08T18:22:42.948Z,17.00
2023-04-08T18:25:10.040Z,16.90
2023-04-08T18:27:36.987Z,16.90
2023-04-08T18:30:04.148Z,16.80
2023-04-08T18:32:30.928Z,16.80
2023-04-08T18:34:57.707Z,16.80
2023-04-08T18:37:24.640Z,16.70
2023-04-08T18:39:51.688Z,16.70
2023-04-08T18:42:18.700Z,16.60
2023-04-08T18:44:45.704Z,16.60
2023-04-08T18:47:12.653Z,16.60
2023-04-08T18:49:39.439Z,16.60
2023-04-08T18:52:06.783Z,16.60
2023-04-08T18:54:34.009Z,16.50
2023-04-08T18:57:01.029Z,16.50
2023-04-08T18:59:28.523Z,16.40
2023-04-08T19:01:55.948Z,16.40
2023-04-08T19:04:23.506Z,16.50
2023-04-08T19:06:50.620Z,16.40
2023-04-08T19:09:17.404Z,16.40
2023-04-08T19:11:44.200Z,16.50
2023-04-08T19:14:11.263Z,16.40
2023-04-08T19:16:39.402Z,16.30
2023-04-08T19:19:08.136Z,16.40
2023-04-08T19:21:37.700Z,16.40
2023-04-08T19:24:06.277Z,16.40
2023-04-08T19:26:33.803Z,16.40
2023-04-08T19:29:01.198Z,16.40
2023-04-08T19:31:28.617Z,16.30
2023-04-08T19:33:55.525Z,16.30
2023-04-08T19:36:22.282Z,16.30
2023-04-08T19:38:49.135Z,16.20
2023-04-08T19:41:16.003Z,16.20
2023-04-08T19:43:42.868Z,16.00
2023-04-08T19:46:09.720Z,16.00
2023-04-08T19:48:36.591Z,15.90
2023-04-08T19:51:03.760Z,15.80
2023-04-08T19:53:30.816Z,15.80
2023-04-08T19:56:01.896Z,15.80
2023-04-08T19:58:29.043Z,15.70
2023-04-08T20:00:56.468Z,15.60
2023-04-08T20:03:23.445Z,15.60
2023-04-08T20:05:50.551Z,15.50
2023-04-08T20:08:17.467Z,15.40
2023-04-08T20:10:44.571Z,15.40
2023-04-08T20:13:11.460Z,15.30
2023-04-08T20:15:38.278Z,15.20
2023-04-08T20:18:05.078Z,15.10
2023-04-08T20:20:32.033Z,15.10
2023-04-08T20:22:58.886Z,15.10
2023-04-08T20:25:25.955Z,15.00
2023-04-08T20:27:53.139Z,15.00
2023-04-08T20:30:19.989Z,14.90
2023-04-08T20:32:47.041Z,14.80
2023-04-08T20:35:13.876Z,14.80
2023-04-08T20:37:40.737Z,14.70
2023-04-08T20:40:08.279Z,14.70
2023-04-08T20:42:35.223Z,14.60
2023-04-08T20:45:02.316Z,14.60
2023-04-08T20:47:29.171Z,14.50
2023-04-08T20:49:56.115Z,14.50
2023-04-08T20:52:22.903Z,14.40
2023-04-08T20:54:50.198Z,14.40
2023-04-08T20:57:17.008Z,14.40
2023-04-08T20:59:43.870Z,14.30
2023-04-08T21:02:10.769Z,14.30
2023-04-08T21:04:37.867Z,14.30
2023-04-08T21:07:04.654Z,14.40
2023-04-08T21:09:31.476Z,14.30
2023-04-08T21:11:58.239Z,14.40
2023-04-08T21:14:25.003Z,14.50
2023-04-08T21:16:51.852Z,14.60
2023-04-08T21:19:18.698Z,14.60
2023-04-08T21:21:46.593Z,14.60
2023-04-08T21:24:13.387Z,14.60
2023-04-08T21:26:40.235Z,14.60
2023-04-08T21:29:07.155Z,14.70
2023-04-08T21:31:34.813Z,14.70
2023-04-08T21:34:01.591Z,14.80
2023-04-08T21:36:28.445Z,14.80
2023-04-08T21:38:56.297Z,14.80
2023-04-08T21:41:24.322Z,14.80
2023-04-08T21:43:51.193Z,14.80
2023-04-08T21:46:18.084Z,14.80
2023-04-08T21:48:45.098Z,14.80
2023-04-08T21:51:18.385Z,14.80
2023-04-08T21:53:45.529Z,14.70
2023-04-08T21:56:13.909Z,14.70
2023-04-08T21:58:41.123Z,14.70
2023-04-08T22:01:08.173Z,14.60
2023-04-08T22:03:35.267Z,14.60
2023-04-08T22:06:02.407Z,14.60
2023-04-08T22:08:30.548Z,14.60
2023-04-08T22:10:58.466Z,14.50
2023-04-08T22:13:25.277Z,14.60
2023-04-08T22:15:52.089Z,14.60
2023-04-08T22:18:18.914Z,14.60
2023-04-08T22:20:45.704Z,14.60
2023-04-08T22:23:12.566Z,14.60
2023-04-08T22:25:39.365Z,14.60
2023-04-08T22:28:06.215Z,14.60
2023-04-08T22:30:33.123Z,14.60
2023-04-08T22:32:59.967Z,14.70
2023-04-08T22:35:26.846Z,14.60
2023-04-08T22:37:53.736Z,14.60
2023-04-08T22:40:20.720Z,14.60
2023-04-08T22:42:47.588Z,14.60
2023-04-08T22:45:14.351Z,14.50
2023-04-08T22:47:41.486Z,14.50
2023-04-08T22:50:08.843Z,14.50
2023-04-08T22:52:35.744Z,14.50
2023-04-08T22:55:02.796Z,14.50
2023-04-08T22:57:29.631Z,14.50
2023-04-08T22:59:56.383Z,14.50
2023-04-08T23:02:23.270Z,14.50
2023-04-08T23:04:54.876Z,14.50
2023-04-08T23:07:22.218Z,14.60
2023-04-08T23:09:48.967Z,14.60
2023-04-08T23:12:15.812Z,14.50
2023-04-08T23:14:42.713Z,14.50
2023-04-08T23:17:09.472Z,14.50
2023-04-08T23:19:36.204Z,14.60
2023-04-08T23:22:03.021Z,14.60
2023-04-08T23:24:29.811Z,14.60
2023-04-08T23:26:56.937Z,14.60
2023-04-08T23:29:24.216Z,14.60
2023-04-08T23:31:51.024Z,14.70
2023-04-08T23:34:17.799Z,14.70
2023-04-08T23:36:44.608Z,14.70
2023-04-08T23:39:11.373Z,14.70
2023-04-08T23:41:38.247Z,14.70
2023-04-08T23:44:05.353Z,14.80
2023-04-08T23:46:32.318Z,14.80
2023-04-08T23:48:59.127Z,14.80
2023-04-08T23:51:26.627Z,14.90
2023-04-08T23:53:53.464Z,14.90
2023-04-08T23:56:20.674Z,14.80
2023-04-08T23:58:47.495Z,14.80
